createdAt,value
2022-11-16T00:03:56.021Z,96715.81
2022-11-16T00:09:15.712Z,96727.09
2022-11-16T00:14:17.018Z,96719.31
2022-11-16T00:19:18.474Z,96709.66
2022-11-16T00:24:19.850Z,96694.25
2022-11-16T00:29:21.208Z,96695.31
2022-11-16T00:34:22.572Z,96674.28
2022-11-16T00:39:23.841Z,96681.97
2022-11-16T00:44:25.111Z,96708.06
2022-11-16T00:49:26.379Z,96699.75
2022-11-16T00:54:27.691Z,96692.72
2022-11-16T00:59:29.056Z,96682.88
2022-11-16T01:04:30.408Z,96669.44
2022-11-16T01:09:31.758Z,96672.50
2022-11-16T01:14:33.150Z,96684.91
2022-11-16T01:19:34.553Z,96671.34
2022-11-16T01:24:35.793Z,96642.81
2022-11-16T01:29:37.045Z,96641.56
2022-11-16T01:34:38.286Z,96648.25
2022-11-16T01:39:39.518Z,96636.91
2022-11-16T01:44:40.735Z,96630.88
2022-11-16T01:49:41.970Z,96637.16
2022-11-16T01:54:43.285Z,96636.38
2022-11-16T01:59:44.490Z,96626.75
2022-11-16T02:04:45.732Z,96625.63
2022-11-16T02:09:57.407Z,96624.19
2022-11-16T02:14:58.771Z,96628.53
2022-11-16T02:20:00.132Z,96615.09
2022-11-16T02:25:01.480Z,96614.69
2022-11-16T02:30:02.724Z,96604.63
2022-11-16T02:35:04.043Z,96604.06
2022-11-16T02:40:05.290Z,96600.34
2022-11-16T02:45:06.502Z,96594.97
2022-11-16T02:50:07.793Z,96582.59
2022-11-16T02:55:09.004Z,96572.72
2022-11-16T03:00:10.254Z,96574.16
2022-11-16T03:05:11.482Z,96562.03
2022-11-16T03:10:32.673Z,96552.69
2022-11-16T03:15:34.060Z,96538.44
2022-11-16T03:20:35.382Z,96545.09
2022-11-16T03:25:36.629Z,96543.25
2022-11-16T03:30:37.857Z,96548.13
2022-11-16T03:35:39.085Z,96557.91
2022-11-16T03:40:40.329Z,96577.38
2022-11-16T03:45:41.593Z,96583.66
2022-11-16T03:50:42.928Z,96584.75
2022-11-16T03:55:49.574Z,96565.09
2022-11-16T04:00:51.285Z,96563.34
2022-11-16T04:06:11.274Z,96557.03
2022-11-16T04:11:31.186Z,96565.84
2022-11-16T04:16:50.974Z,96557.16
2022-11-16T04:22:10.926Z,96565.00
2022-11-16T04:27:31.074Z,96571.09
2022-11-16T04:32:51.351Z,96579.09
2022-11-16T04:37:53.393Z,96578.31
2022-11-16T04:42:54.851Z,96575.97
2022-11-16T04:47:56.240Z,96576.44
2022-11-16T04:52:57.442Z,96568.91
2022-11-16T04:57:58.654Z,96566.63
2022-11-16T05:03:01.841Z,96567.78
2022-11-16T05:08:03.254Z,96572.50
2022-11-16T05:13:04.492Z,96579.03
2022-11-16T05:18:05.779Z,96589.94
2022-11-16T05:23:27.021Z,96627.84
2022-11-16T05:28:28.276Z,96645.38
2022-11-16T05:33:29.496Z,96658.69
2022-11-16T05:38:30.869Z,96670.94
2022-11-16T05:43:32.222Z,96658.25
2022-11-16T05:48:33.803Z,96648.31
2022-11-16T05:53:35.248Z,96653.97
2022-11-16T05:58:36.769Z,96650.13
2022-11-16T06:03:38.186Z,96637.44
2022-11-16T06:08:39.424Z,96630.00
2022-11-16T06:13:40.680Z,96629.38
2022-11-16T06:18:41.931Z,96613.00
2022-11-16T06:23:43.261Z,96616.34
2022-11-16T06:28:44.832Z,96614.13
2022-11-16T06:33:46.069Z,96610.25
2022-11-16T06:38:47.368Z,96606.91
2022-11-16T06:43:48.688Z,96604.09
2022-11-16T06:48:50.081Z,96599.09
2022-11-16T06:53:51.358Z,96589.91
2022-11-16T06:58:53.678Z,96591.50
2022-11-16T07:03:55.121Z,96589.84
2022-11-16T07:08:56.434Z,96584.19
2022-11-16T07:13:57.795Z,96583.38
2022-11-16T07:18:59.304Z,96588.75
2022-11-16T07:24:00.539Z,96589.69
2022-11-16T07:29:01.773Z,96587.63
2022-11-16T07:34:03.004Z,96589.06
2022-11-16T07:39:04.213Z,96584.53
2022-11-16T07:44:08.427Z,96583.84
2022-11-16T07:49:13.106Z,96588.22
2022-11-16T07:54:14.399Z,96582.97
2022-11-16T07:59:15.680Z,96593.53
2022-11-16T08:04:17.551Z,96602.84
2022-11-16T08:09:18.918Z,96613.41
2022-11-16T08:14:20.720Z,96626.41
2022-11-16T08:19:22.073Z,96625.41
2022-11-16T08:24:23.901Z,96631.66
2022-11-16T08:29:25.586Z,96633.03
2022-11-16T08:34:26.842Z,96631.88
2022-11-16T08:39:28.169Z,96628.88
2022-11-16T08:44:29.888Z,96633.53
2022-11-16T08:49:31.625Z,96642.31
2022-11-16T08:54:32.923Z,96640.44
2022-11-16T08:59:34.579Z,96643.88
2022-11-16T09:04:37.343Z,96647.34
2022-11-16T09:09:38.721Z,96650.88
2022-11-16T09:14:39.997Z,96656.97
2022-11-16T09:19:41.295Z,96654.72
2022-11-16T09:24:43.157Z,96652.13
2022-11-16T09:29:45.498Z,96651.00
2022-11-16T09:34:46.753Z,96645.00
2022-11-16T09:39:48.254Z,96636.94
2022-11-16T09:44:49.573Z,96627.13
2022-11-16T09:49:50.845Z,96625.53
2022-11-16T09:54:52.114Z,96626.06
2022-11-16T09:59:53.394Z,96631.91
2022-11-16T10:04:58.269Z,96634.38
2022-11-16T10:10:00.048Z,96631.34
2022-11-16T10:15:06.687Z,96619.75
2022-11-16T10:20:08.001Z,96615.84
2022-11-16T10:25:09.452Z,96608.75
2022-11-16T10:30:10.952Z,96603.41
2022-11-16T10:35:12.276Z,96593.41
2022-11-16T10:40:13.530Z,96579.94
2022-11-16T10:45:14.848Z,96574.84
2022-11-16T10:50:16.173Z,96572.94
2022-11-16T10:55:17.464Z,96573.44
2022-11-16T11:00:22.228Z,96581.16
2022-11-16T11:05:25.155Z,96589.47
2022-11-16T11:10:28.588Z,96588.63
2022-11-16T11:15:29.809Z,96582.06
2022-11-16T11:20:31.034Z,96586.25
2022-11-16T11:25:32.472Z,96581.13
2022-11-16T11:30:33.719Z,96576.28
2022-11-16T11:35:35.057Z,96584.38
2022-11-16T11:40:36.342Z,96582.81
2022-11-16T11:45:37.592Z,96571.91
2022-11-16T11:50:39.931Z,96580.03
2022-11-16T11:55:41.150Z,96572.19
2022-11-16T12:00:42.388Z,96569.00
2022-11-16T12:05:43.661Z,96573.34
2022-11-16T12:10:46.182Z,96570.44
2022-11-16T12:15:47.425Z,96563.69
2022-11-16T12:20:48.681Z,96559.09
2022-11-16T12:25:49.938Z,96544.06
2022-11-16T12:30:51.170Z,96555.75
2022-11-16T12:35:52.393Z,96548.59
2022-11-16T12:40:53.606Z,96548.25
2022-11-16T12:45:54.893Z,96547.97
2022-11-16T12:50:56.161Z,96552.59
2022-11-16T12:55:57.368Z,96562.19
2022-11-16T13:00:59.542Z,96560.75
2022-11-16T13:06:00.862Z,96562.59
2022-11-16T13:11:02.080Z,96565.75
2022-11-16T13:16:03.346Z,96562.88
2022-11-16T13:21:04.546Z,96561.38
2022-11-16T13:26:10.376Z,96558.28
2022-11-16T13:31:11.710Z,96556.91
2022-11-16T13:36:12.906Z,96546.63
2022-11-16T13:41:14.131Z,96551.50
2022-11-16T13:46:48.219Z,96545.19
2022-11-16T13:51:36.508Z,96545.94
2022-11-16T13:56:37.782Z,96537.16
2022-11-16T14:01:39.148Z,96538.16
2022-11-16T14:06:40.382Z,96532.22
2022-11-16T14:11:41.666Z,96525.09
2022-11-16T14:16:43.137Z,96519.28
2022-11-16T14:21:44.336Z,96511.50
2022-11-16T14:26:45.634Z,96514.19
2022-11-16T14:31:46.841Z,96502.13
2022-11-16T14:36:48.185Z,96496.78
2022-11-16T14:41:49.451Z,96488.75
2022-11-16T14:46:50.769Z,96480.06
2022-11-16T14:51:52.005Z,96484.44
2022-11-16T14:56:53.217Z,96486.13
2022-11-16T15:01:54.483Z,96491.16
2022-11-16T15:06:55.731Z,96492.59
2022-11-16T15:12:15.919Z,96505.53
2022-11-16T15:17:17.230Z,96513.66
2022-11-16T15:22:18.787Z,96508.00
2022-11-16T15:27:20.068Z,96504.00
2022-11-16T15:32:21.365Z,96509.00
2022-11-16T15:37:22.621Z,96528.22
2022-11-16T15:42:23.883Z,96532.09
2022-11-16T15:47:25.167Z,96525.44
2022-11-16T15:52:26.463Z,96532.09
2022-11-16T15:57:27.753Z,96527.44
2022-11-16T16:02:29.044Z,96517.97
2022-11-16T16:07:30.424Z,96513.44
2022-11-16T16:12:31.850Z,96502.16
2022-11-16T16:17:33.192Z,96501.44
2022-11-16T16:22:34.571Z,96505.69
2022-11-16T16:27:36.352Z,96504.59
2022-11-16T16:32:37.646Z,96508.78
2022-11-16T16:37:39.098Z,96501.34
2022-11-16T16:42:41.323Z,96482.84
2022-11-16T16:47:42.898Z,96474.97
2022-11-16T16:52:44.180Z,96469.16
2022-11-16T16:57:45.582Z,96472.03
2022-11-16T17:02:46.953Z,96481.28
2022-11-16T17:07:50.648Z,96482.84
2022-11-16T17:12:51.948Z,96477.56
2022-11-16T17:17:53.240Z,96467.66
2022-11-16T17:22:54.596Z,96459.00
2022-11-16T17:27:56.067Z,96460.44
2022-11-16T17:32:57.422Z,96469.63
2022-11-16T17:37:58.861Z,96468.69
2022-11-16T17:43:00.225Z,96468.63
2022-11-16T17:48:01.671Z,96472.00
2022-11-16T17:53:02.990Z,96470.13
2022-11-16T17:58:04.389Z,96470.13
2022-11-16T18:03:05.811Z,96471.81
2022-11-16T18:08:08.063Z,96471.72
2022-11-16T18:13:09.284Z,96456.53
2022-11-16T18:18:10.633Z,96453.59
2022-11-16T18:23:11.884Z,96455.81
2022-11-16T18:28:13.132Z,96451.19
2022-11-16T18:33:14.346Z,96440.59
2022-11-16T18:38:19.070Z,96431.78
2022-11-16T18:43:20.627Z,96439.00
2022-11-16T18:48:21.867Z,96430.06
2022-11-16T18:53:23.151Z,96440.00
2022-11-16T18:58:49.199Z,96443.34
2022-11-16T19:03:45.905Z,96438.50
2022-11-16T19:08:53.660Z,96428.50
2022-11-16T19:13:56.449Z,96429.84
2022-11-16T19:18:58.105Z,96424.22
2022-11-16T19:23:59.406Z,96425.53
2022-11-16T19:29:04.080Z,96427.72
2022-11-16T19:34:05.505Z,96428.88
2022-11-16T19:39:06.809Z,96441.41
2022-11-16T19:44:08.165Z,96435.53
2022-11-16T19:49:19.450Z,96447.28
2022-11-16T19:54:21.114Z,96427.56
2022-11-16T19:59:22.375Z,96418.16
2022-11-16T20:04:25.482Z,96421.09
2022-11-16T20:09:26.767Z,96424.28
2022-11-16T20:14:28.115Z,96419.19
2022-11-16T20:19:29.403Z,96413.44
2022-11-16T20:24:30.667Z,96403.59
2022-11-16T20:29:31.922Z,96399.91
2022-11-16T20:39:57.102Z,96410.50
2022-11-16T20:50:22.922Z,96416.75
2022-11-16T20:55:24.144Z,96407.34
2022-11-16T21:00:25.624Z,96405.84
2022-11-16T21:05:26.941Z,96406.50
2022-11-16T21:10:28.459Z,96411.38
2022-11-16T21:15:29.664Z,96413.06
2022-11-16T21:20:31.456Z,96410.38
2022-11-16T21:25:32.689Z,96411.00
2022-11-16T21:30:33.993Z,96413.25
2022-11-16T21:35:35.277Z,96406.34
2022-11-16T21:40:36.546Z,96414.91
2022-11-16T21:45:37.742Z,96405.56
2022-11-16T21:50:39.066Z,96407.09
2022-11-16T21:55:40.379Z,96404.75
2022-11-16T22:00:41.639Z,96412.75
2022-11-16T22:06:02.655Z,96408.34
2022-11-16T22:11:04.118Z,96400.59
2022-11-16T22:16:05.445Z,96398.69
2022-11-16T22:21:06.755Z,96382.00
2022-11-16T22:26:08.015Z,96371.78
2022-11-16T22:31:09.639Z,96370.19
2022-11-16T22:36:10.927Z,96365.75
2022-11-16T22:41:12.163Z,96363.31
2022-11-16T22:46:13.410Z,96367.44
2022-11-16T22:51:14.655Z,96349.34
2022-11-16T22:56:15.923Z,96364.94
2022-11-16T23:01:17.149Z,96361.91
2022-11-16T23:06:18.354Z,96337.81
2022-11-16T23:11:38.420Z,96347.00
2022-11-16T23:16:42.217Z,96344.03
2022-11-16T23:22:02.137Z,96329.38
2022-11-16T23:27:22.134Z,96335.19
2022-11-16T23:32:23.427Z,96319.94
2022-11-16T23:37:24.637Z,96306.19
2022-11-16T23:42:44.680Z,96299.97
2022-11-16T23:47:45.892Z,96295.63
2022-11-16T23:52:47.137Z,96305.03
2022-11-16T23:57:57.233Z,96305.50
